Time;durP1;ratioP1;P1;durP2;ratioP2;P2;SDS_P1;SDS_P2;PMS_P1;PMS_P2;Temp;Humidity;BMP_temperature;BMP_pressure;BME280_temperature;BME280_humidity;BME280_pressure;Samples;Min_cycle;Max_cycle;Signal;HPM_P1;HPM_P2
2022/02/11 00:02:17;;;;;;;10.30;5.00;;;;;;;3.77;100.00;96537.38;5036842;28;20029;-76
2022/02/11 00:07:32;;;;;;;10.10;4.60;;;;;;;3.64;100.00;96552.19;5041147;28;20029;-76
2022/02/11 00:09:58;;;;;;;8.77;4.47;;;;;;;3.66;100.00;96552.91;5038387;28;20561;-77
2022/02/11 00:12:24;;;;;;;8.73;4.37;;;;;;;3.70;100.00;96547.38;5028067;28;20018;-77
2022/02/11 00:17:18;;;;;;;8.53;4.67;;;;;;;3.72;100.00;96542.91;5042328;28;20111;-76
2022/02/11 00:19:44;;;;;;;8.77;4.53;;;;;;;3.69;100.00;96540.53;5048616;28;20702;-78
2022/02/11 00:22:10;;;;;;;9.27;4.93;;;;;;;3.64;100.00;96541.78;5038255;28;20063;-76
2022/02/11 00:24:35;;;;;;;7.40;4.20;;;;;;;3.69;100.00;96540.53;5027830;28;20040;-76
2022/02/11 00:35:29;;;;;;;9.93;4.70;;;;;;;3.70;100.00;96515.34;5027408;28;20017;-77
2022/02/11 00:37:55;;;;;;;10.93;5.47;;;;;;;3.73;100.00;96515.94;5038535;28;20454;-76
2022/02/11 01:02:14;;;;;;;10.57;5.53;;;;;;;3.74;100.00;96507.19;5068117;28;20478;-76
2022/02/11 01:04:39;;;;;;;14.70;7.33;;;;;;;3.64;100.00;96510.56;5035240;28;20048;-75
2022/02/11 01:07:05;;;;;;;13.37;7.10;;;;;;;3.62;100.00;96505.50;5017072;28;20033;-77
2022/02/11 01:09:33;;;;;;;11.77;5.97;;;;;;;3.62;100.00;96502.91;5024558;28;20820;-76
2022/02/11 01:12:02;;;;;;;13.93;5.33;;;;;;;3.63;100.00;96496.75;5046135;28;20453;-76
2022/02/11 01:14:40;;;;;;;8.10;4.57;;;;;;;3.62;100.00;96499.44;5042528;28;20059;-76
2022/02/11 01:17:45;;;;;;;10.67;5.03;;;;;;;3.62;100.00;96502.03;5034625;28;20425;-77
2022/02/11 01:22:42;;;;;;;8.93;4.73;;;;;;;3.60;100.00;96503.94;5036605;28;20083;-77
2022/02/11 01:38:37;;;;;;;8.20;4.77;;;;;;;3.65;100.00;96515.66;5043018;28;20505;-75
2022/02/11 02:13:18;;;;;;;12.07;5.70;;;;;;;3.37;100.00;96493.41;5045602;28;20486;-76
2022/02/11 02:37:34;;;;;;;12.27;5.87;;;;;;;3.42;100.00;96483.50;5047617;28;20055;-77
2022/02/11 02:59:03;;;;;;;9.40;5.17;;;;;;;3.24;100.00;96487.41;5082909;28;20036;-76
2022/02/11 03:01:56;;;;;;;8.77;4.37;;;;;;;3.25;100.00;96484.72;5025997;28;20025;-76
2022/02/11 03:15:30;;;;;;;9.40;5.17;;;;;;;3.17;100.00;96480.97;5010801;28;20769;-77
2022/02/11 03:58:49;;;;;;;10.57;6.20;;;;;;;2.39;100.00;96556.41;5037372;28;20984;-76
2022/02/11 04:23:12;;;;;;;10.17;5.67;;;;;;;2.19;100.00;96581.06;5042275;28;20439;-77
2022/02/11 04:55:27;;;;;;;7.77;3.10;;;;;;;1.81;100.00;96644.81;5028927;28;21211;-77
2022/02/11 05:00:39;;;;;;;5.00;2.73;;;;;;;1.74;100.00;96658.25;5022986;28;21013;-77
2022/02/11 05:03:05;;;;;;;5.30;2.87;;;;;;;1.75;100.00;96659.94;5036278;28;20475;-76
2022/02/11 05:05:48;;;;;;;3.93;1.93;;;;;;;1.64;100.00;96674.38;5006201;28;20603;-77
2022/02/11 05:08:19;;;;;;;3.30;1.80;;;;;;;1.51;100.00;96678.66;5034081;28;20538;-76
2022/02/11 05:10:45;;;;;;;5.47;2.47;;;;;;;1.52;100.00;96675.13;5007670;28;20038;-77
2022/02/11 05:13:12;;;;;;;4.57;2.47;;;;;;;1.41;100.00;96693.09;5003461;28;20529;-76
2022/02/11 05:15:39;;;;;;;4.53;2.10;;;;;;;1.52;100.00;96685.50;5003492;28;20473;-76
2022/02/11 05:18:05;;;;;;;3.57;1.90;;;;;;;1.37;100.00;96704.53;5016427;28;20480;-75
2022/02/11 05:20:31;;;;;;;3.43;2.00;;;;;;;1.32;100.00;96701.41;5009378;28;20464;-77
2022/02/11 05:22:58;;;;;;;2.97;1.60;;;;;;;1.23;100.00;96720.06;5029373;28;20495;-76
2022/02/11 05:25:24;;;;;;;2.83;1.70;;;;;;;1.23;100.00;96720.91;5029618;28;20490;-77
2022/02/11 05:27:50;;;;;;;2.17;1.50;;;;;;;1.20;100.00;96728.03;5006752;28;20504;-76
2022/02/11 05:30:16;;;;;;;2.80;1.60;;;;;;;1.13;100.00;96730.97;5017506;28;20034;-78
2022/02/11 05:32:42;;;;;;;1.50;1.00;;;;;;;1.12;100.00;96724.13;5001504;28;20418;-78
2022/02/11 05:35:08;;;;;;;2.23;1.30;;;;;;;1.01;100.00;96720.50;5005847;28;20500;-77
2022/02/11 05:37:33;;;;;;;1.20;0.70;;;;;;;1.08;100.00;96743.38;5028305;28;20906;-76
2022/02/11 05:40:00;;;;;;;3.53;1.70;;;;;;;1.05;100.00;96740.13;5014724;28;20535;-76
2022/02/11 05:42:28;;;;;;;3.23;1.30;;;;;;;0.94;100.00;96745.91;5004780;28;20035;-76
2022/02/11 05:44:55;;;;;;;1.40;0.73;;;;;;;0.90;100.00;96770.28;5061719;28;20472;-76
2022/02/11 05:47:20;;;;;;;3.33;1.50;;;;;;;0.93;100.00;96767.53;5036187;28;20542;-77
2022/02/11 05:49:46;;;;;;;6.63;3.53;;;;;;;0.86;100.00;96776.56;5056301;28;20559;-79
2022/02/11 05:52:12;;;;;;;2.23;1.20;;;;;;;0.87;100.00;96783.41;5016003;28;20029;-76
2022/02/11 05:54:38;;;;;;;1.73;1.17;;;;;;;0.96;100.00;96782.91;5045559;28;20498;-75
2022/02/11 05:57:04;;;;;;;1.83;1.10;;;;;;;0.85;100.00;96795.63;5028609;28;20356;-76
2022/02/11 05:59:29;;;;;;;3.77;2.00;;;;;;;0.76;100.00;96796.13;5010636;28;20788;-76
2022/02/11 06:01:55;;;;;;;3.83;2.10;;;;;;;0.82;100.00;96800.97;5030543;28;20440;-77
2022/02/11 06:04:24;;;;;;;4.17;2.50;;;;;;;0.70;100.00;96807.66;5035351;28;20494;-77
2022/02/11 06:06:51;;;;;;;4.60;2.50;;;;;;;0.72;100.00;96820.53;5048228;28;20041;-76
2022/02/11 06:09:18;;;;;;;5.57;1.90;;;;;;;0.76;100.00;96824.59;5043964;28;20471;-76
2022/02/11 06:11:45;;;;;;;4.07;2.23;;;;;;;0.57;100.00;96830.81;5037411;28;21050;-76
2022/02/11 06:14:11;;;;;;;4.37;2.17;;;;;;;0.64;100.00;96845.09;5033684;28;20541;-77
2022/02/11 06:16:36;;;;;;;3.33;1.80;;;;;;;0.56;100.00;96839.47;5039147;28;20501;-76
2022/02/11 06:19:02;;;;;;;4.23;2.20;;;;;;;0.54;100.00;96856.84;5021619;28;20503;-76
2022/02/11 06:21:28;;;;;;;4.63;2.63;;;;;;;0.52;100.00;96857.84;5020267;28;20033;-76
2022/02/11 06:23:55;;;;;;;5.23;2.70;;;;;;;0.65;100.00;96864.03;5032443;28;20034;-76
2022/02/11 06:26:25;;;;;;;5.73;2.70;;;;;;;0.74;100.00;96870.44;5041252;28;20049;-75
2022/02/11 06:28:52;;;;;;;3.97;2.50;;;;;;;0.53;100.00;96875.84;5024047;28;20558;-75
2022/02/11 06:31:19;;;;;;;3.63;2.10;;;;;;;0.63;100.00;96877.03;5037576;28;20448;-77
2022/02/11 06:33:45;;;;;;;4.27;2.73;;;;;;;0.57;100.00;96886.88;5015705;28;21424;-75
2022/02/11 06:36:11;;;;;;;10.07;5.27;;;;;;;0.56;100.00;96895.56;5054359;28;20498;-76
2022/02/11 06:38:37;;;;;;;8.47;4.90;;;;;;;0.59;100.00;96901.41;5020438;28;20567;-76
2022/02/11 06:41:03;;;;;;;6.63;3.53;;;;;;;0.55;100.00;96904.25;5012115;28;20522;-75
2022/02/11 06:43:29;;;;;;;8.37;4.37;;;;;;;0.49;100.00;96914.94;5030949;28;20045;-75
2022/02/11 06:45:55;;;;;;;5.37;3.60;;;;;;;0.46;100.00;96932.28;5012262;28;20489;-75
2022/02/11 06:48:29;;;;;;;6.70;2.93;;;;;;;0.48;100.00;96939.97;5042804;28;20035;-75
2022/02/11 06:50:56;;;;;;;6.57;3.10;;;;;;;0.53;100.00;96943.16;5040601;28;20039;-76
2022/02/11 06:53:22;;;;;;;5.17;2.80;;;;;;;0.60;100.00;96949.66;5039680;28;20455;-74
2022/02/11 06:55:48;;;;;;;8.57;3.53;;;;;;;0.49;100.00;96961.50;5031008;28;20421;-76
2022/02/11 06:58:15;;;;;;;5.10;2.73;;;;;;;0.60;100.00;96965.19;5030356;28;20467;-76
2022/02/11 07:00:45;;;;;;;5.97;2.90;;;;;;;0.59;100.00;96962.69;5035813;28;20551;-76
2022/02/11 07:03:12;;;;;;;9.10;3.47;;;;;;;0.53;100.00;96971.63;5017038;28;20675;-75
2022/02/11 07:05:39;;;;;;;6.00;3.70;;;;;;;0.50;100.00;96986.47;5031265;28;20498;-76
2022/02/11 07:08:06;;;;;;;7.23;3.90;;;;;;;0.48;100.00;96986.56;5048484;28;20520;-74
2022/02/11 07:10:31;;;;;;;7.90;4.13;;;;;;;0.45;100.00;97000.47;5019261;28;20447;-75
2022/02/11 07:12:57;;;;;;;7.33;3.70;;;;;;;0.35;100.00;97013.97;5061695;28;20554;-76
2022/02/11 07:15:23;;;;;;;5.50;3.40;;;;;;;0.50;100.00;97015.75;5028725;28;20036;-76
2022/02/11 07:17:49;;;;;;;7.37;3.60;;;;;;;0.47;100.00;97023.72;5028792;28;20029;-77
2022/02/11 07:20:14;;;;;;;6.03;3.50;;;;;;;0.56;100.00;97030.16;5033575;28;20033;-75
2022/02/11 07:22:40;;;;;;;7.87;4.60;;;;;;;0.51;100.00;97027.81;5039474;28;20037;-74
2022/02/11 07:25:08;;;;;;;6.80;4.07;;;;;;;0.50;100.00;97035.63;5023931;28;20029;-75
2022/02/11 07:27:34;;;;;;;9.80;5.13;;;;;;;0.51;100.00;97042.50;5013010;28;20108;-75
2022/02/11 07:30:02;;;;;;;10.23;4.50;;;;;;;0.44;100.00;97047.16;5016159;28;20498;-76
2022/02/11 07:32:28;;;;;;;7.23;4.23;;;;;;;0.42;100.00;97054.13;5027350;28;20079;-74
2022/02/11 07:34:54;;;;;;;7.67;4.33;;;;;;;0.40;100.00;97055.97;5044999;28;20460;-75
2022/02/11 07:37:21;;;;;;;8.80;4.40;;;;;;;0.40;100.00;97062.00;5000710;28;21017;-76
2022/02/11 07:39:50;;;;;;;7.87;3.73;;;;;;;0.34;100.00;97066.63;5027149;28;20464;-76
2022/02/11 07:42:15;;;;;;;8.07;3.87;;;;;;;0.27;100.00;97083.34;5035737;28;20790;-76
2022/02/11 07:44:41;;;;;;;8.70;4.20;;;;;;;0.21;100.00;97092.25;5027979;28;20474;-77
2022/02/11 07:47:07;;;;;;;11.47;5.37;;;;;;;0.16;100.00;97104.56;5041794;28;20056;-75
2022/02/11 07:49:36;;;;;;;10.73;4.30;;;;;;;0.17;100.00;97106.25;5032134;28;20033;-75
2022/02/11 07:52:03;;;;;;;8.80;4.97;;;;;;;0.17;100.00;97112.28;5013931;28;20541;-75
2022/02/11 07:54:30;;;;;;;10.57;4.00;;;;;;;0.07;100.00;97121.38;5018511;28;20499;-75
2022/02/11 07:56:56;;;;;;;8.30;3.90;;;;;;;0.22;100.00;97112.88;5057529;28;20543;-75
2022/02/11 07:59:22;;;;;;;6.73;4.10;;;;;;;0.49;100.00;97114.19;5019626;28;21058;-76
2022/02/11 08:01:48;;;;;;;7.90;4.20;;;;;;;0.35;100.00;97123.47;5021043;28;20456;-75
2022/02/11 08:04:14;;;;;;;12.57;8.57;;;;;;;0.72;100.00;97133.75;5018215;28;20072;-76
2022/02/11 08:06:39;;;;;;;23.43;15.60;;;;;;;0.72;100.00;97142.38;5018734;28;20463;-74
2022/02/11 08:09:05;;;;;;;14.63;9.13;;;;;;;0.69;100.00;97151.09;5042902;28;20033;-76
2022/02/11 08:11:32;;;;;;;9.30;5.53;;;;;;;0.63;100.00;97154.00;5008189;28;20450;-76
2022/02/11 08:13:58;;;;;;;8.03;4.43;;;;;;;0.51;100.00;97162.38;5042970;28;20977;-75
2022/02/11 08:16:23;;;;;;;9.47;4.23;;;;;;;0.54;100.00;97161.38;5017373;28;20538;-76
2022/02/11 08:18:49;;;;;;;7.10;4.00;;;;;;;0.69;100.00;97166.66;5022397;28;20555;-76
2022/02/11 08:21:15;;;;;;;11.80;3.60;;;;;;;0.82;100.00;97172.06;5022308;28;20552;-75
2022/02/11 08:23:41;;;;;;;10.70;4.60;;;;;;;0.64;100.00;97188.50;5043920;28;20633;-74
2022/02/11 08:26:08;;;;;;;7.43;3.73;;;;;;;0.61;100.00;97193.84;5027322;28;20041;-75
2022/02/11 08:28:35;;;;;;;9.23;3.73;;;;;;;0.77;100.00;97192.19;5008826;28;20489;-76
2022/02/11 08:31:02;;;;;;;11.23;4.40;;;;;;;0.82;100.00;97202.28;5028576;28;20530;-76
2022/02/11 08:33:28;;;;;;;10.40;4.33;;;;;;;0.97;100.00;97201.53;5039848;28;20593;-76
2022/02/11 08:35:56;;;;;;;7.53;4.73;;;;;;;1.13;100.00;97199.84;5018756;28;21087;-75
2022/02/11 08:38:24;;;;;;;10.97;4.63;;;;;;;1.34;100.00;97204.84;5007166;28;20036;-76
2022/02/11 08:40:51;;;;;;;9.17;4.33;;;;;;;1.34;100.00;97208.31;5019515;28;20559;-78
2022/02/11 08:43:18;;;;;;;10.07;5.10;;;;;;;1.43;100.00;97214.75;5031963;28;20551;-75
2022/02/11 08:45:44;;;;;;;12.63;3.93;;;;;;;1.41;100.00;97221.78;5008275;28;20531;-75
2022/02/11 08:48:11;;;;;;;12.13;4.67;;;;;;;1.46;100.00;97230.16;5007490;28;20456;-76
2022/02/11 08:50:37;;;;;;;7.20;4.03;;;;;;;1.45;100.00;97228.47;5018488;28;20092;-77
2022/02/11 08:53:04;;;;;;;8.93;3.40;;;;;;;1.43;100.00;97240.66;5028564;28;20432;-76
2022/02/11 08:55:30;;;;;;;9.90;4.73;;;;;;;1.38;100.00;97238.31;5020839;28;20514;-77
2022/02/11 08:57:59;;;;;;;6.87;3.63;;;;;;;1.31;100.00;97249.91;5024568;28;20445;-75
2022/02/11 09:00:27;;;;;;;7.40;3.20;;;;;;;1.33;100.00;97255.00;5038621;28;20490;-76
2022/02/11 09:02:54;;;;;;;12.27;4.10;;;;;;;1.29;100.00;97264.69;5043199;28;20432;-76
2022/02/11 09:05:22;;;;;;;7.60;3.40;;;;;;;1.40;100.00;97266.72;5045984;28;20467;-78
2022/02/11 09:08:00;;;;;;;8.07;3.17;;;;;;;1.26;100.00;97272.63;5027390;28;20654;-77
2022/02/11 09:10:28;;;;;;;6.93;2.83;;;;;;;1.29;100.00;97275.06;5028404;28;20455;-76
2022/02/11 09:12:55;;;;;;;8.63;3.57;;;;;;;1.33;100.00;97278.31;5037791;28;20535;-75
2022/02/11 09:15:21;;;;;;;9.27;3.53;;;;;;;1.47;100.00;97281.06;5035275;28;20502;-77
2022/02/11 09:17:50;;;;;;;10.30;3.67;;;;;;;1.47;100.00;97281.06;5034521;28;20451;-78
2022/02/11 09:20:18;;;;;;;8.43;3.07;;;;;;;1.45;100.00;97285.50;5037098;28;20475;-76
2022/02/11 09:22:44;;;;;;;8.57;3.90;;;;;;;1.47;100.00;97288.00;5012978;28;20469;-75
2022/02/11 09:25:11;;;;;;;9.23;3.57;;;;;;;1.38;100.00;97291.91;5010551;28;20460;-78
2022/02/11 09:27:43;;;;;;;8.67;3.20;;;;;;;2.00;100.00;97293.03;5008355;28;20896;-75
2022/02/11 09:30:15;;;;;;;10.50;2.80;;;;;;;1.93;100.00;97296.84;5019823;28;20492;-76
2022/02/11 09:32:42;;;;;;;7.10;2.80;;;;;;;1.98;100.00;97313.03;5034100;28;20460;-76
2022/02/11 09:35:09;;;;;;;5.90;2.67;;;;;;;2.08;100.00;97323.78;5022692;28;20578;-77
2022/02/11 09:37:36;;;;;;;7.83;3.17;;;;;;;2.03;100.00;97324.00;5038184;28;20515;-76
2022/02/11 09:40:07;;;;;;;7.60;3.53;;;;;;;1.82;100.00;97325.13;5023400;28;20551;-75
2022/02/11 09:42:33;;;;;;;7.97;2.77;;;;;;;1.95;100.00;97325.34;5016787;28;20549;-76
2022/02/11 09:45:00;;;;;;;8.07;2.47;;;;;;;3.47;100.00;97321.28;5051384;28;20463;-75
2022/02/11 09:47:26;;;;;;;9.43;2.40;;;;;;;4.01;93.84;97318.94;5025576;28;21083;-75
2022/02/11 09:49:52;;;;;;;7.23;2.53;;;;;;;3.31;98.72;97317.88;5024535;28;20456;-75
2022/02/11 09:52:21;;;;;;;5.93;2.20;;;;;;;3.66;96.55;97325.44;5040378;28;20025;-75
2022/02/11 09:54:47;;;;;;;7.77;2.10;;;;;;;3.72;96.12;97318.09;5029037;28;20057;-73
2022/02/11 09:57:15;;;;;;;6.63;2.53;;;;;;;4.27;95.86;97332.16;5040513;28;20037;-77
2022/02/11 09:59:42;;;;;;;8.00;2.30;;;;;;;5.06;92.00;97333.34;5025364;28;20036;-77
2022/02/11 10:02:09;;;;;;;6.77;2.40;;;;;;;6.06;85.29;97320.63;5002871;28;20563;-78
2022/02/11 10:04:34;;;;;;;5.30;1.90;;;;;;;6.60;78.95;97316.91;5035680;28;20115;-78
2022/02/11 10:07:00;;;;;;;4.07;1.77;;;;;;;7.01;74.55;97315.78;5037424;28;20108;-76
2022/02/11 10:09:28;;;;;;;5.43;1.93;;;;;;;6.25;76.20;97322.81;5023545;28;20041;-76
2022/02/11 10:11:54;;;;;;;7.60;2.20;;;;;;;6.72;78.54;97326.50;5034081;28;20045;-77
2022/02/11 10:14:35;;;;;;;6.93;2.43;;;;;;;4.99;84.22;97345.09;5018817;28;20066;-78
2022/02/11 10:17:08;;;;;;;6.57;2.43;;;;;;;3.72;91.16;97359.72;5025206;28;20029;-76
2022/02/11 10:19:55;;;;;;;5.57;2.07;;;;;;;3.50;93.49;97354.91;5008482;28;20483;-77
2022/02/11 10:22:27;;;;;;;6.37;2.03;;;;;;;3.14;94.94;97349.19;5027801;28;20429;-76
2022/02/11 10:24:55;;;;;;;6.77;2.20;;;;;;;2.80;98.93;97361.47;5041427;28;20033;-76
2022/02/11 10:27:28;;;;;;;6.50;2.70;;;;;;;2.89;100.00;97357.53;5025187;28;20021;-75
2022/02/11 10:30:00;;;;;;;8.88;3.40;;;;;;;2.99;100.00;97345.72;5043192;28;20033;-77
2022/02/11 10:32:47;;;;;;;5.67;2.00;;;;;;;2.87;100.00;97347.22;5036162;28;20061;-77
2022/02/11 10:35:15;;;;;;;7.77;2.67;;;;;;;3.00;100.00;97348.22;5015505;28;20458;-76
2022/02/11 10:38:04;;;;;;;7.30;2.40;;;;;;;4.44;90.86;97350.22;5043819;28;20454;-77
2022/02/11 10:40:31;;;;;;;9.80;2.60;;;;;;;3.70;91.19;97352.94;5023323;28;20569;-78
2022/02/11 10:42:57;;;;;;;6.77;2.20;;;;;;;4.17;92.00;97351.88;5011507;28;20080;-76
2022/02/11 10:45:37;;;;;;;8.80;2.47;;;;;;;4.31;88.49;97344.06;5019184;28;20573;-76
2022/02/11 10:48:23;;;;;;;6.77;2.23;;;;;;;4.09;93.02;97354.09;5036284;28;20450;-77
2022/02/11 10:50:55;;;;;;;10.23;2.63;;;;;;;3.65;94.12;97354.94;5038239;28;20405;-77
2022/02/11 10:53:32;;;;;;;8.37;2.97;;;;;;;3.31;96.57;97352.50;5033358;28;20029;-76
2022/02/11 10:55:59;;;;;;;8.03;2.40;;;;;;;2.98;96.83;97370.81;5011366;28;20040;-78
2022/02/11 10:58:28;;;;;;;7.07;2.60;;;;;;;2.94;98.93;97366.72;5039277;28;20583;-75
2022/02/11 11:00:58;;;;;;;7.77;2.50;;;;;;;2.77;100.00;97367.66;5020782;28;20036;-76
2022/02/11 11:03:23;;;;;;;9.67;3.63;;;;;;;2.67;100.00;97376.03;5038730;28;20036;-76
2022/02/11 11:05:50;;;;;;;8.57;3.20;;;;;;;2.57;100.00;97376.50;5024087;28;20040;-76
2022/02/11 11:08:18;;;;;;;4.93;2.73;;;;;;;2.68;100.00;97377.69;5056054;28;20026;-76
2022/02/11 11:10:45;;;;;;;8.20;2.90;;;;;;;2.49;100.00;97373.50;5043458;28;20037;-77
2022/02/11 11:13:15;;;;;;;10.17;4.67;;;;;;;2.50;100.00;97367.38;5042875;28;20120;-76
2022/02/11 11:15:43;;;;;;;11.50;5.07;;;;;;;2.65;100.00;97388.25;5026328;28;20037;-77
2022/02/11 11:18:10;;;;;;;13.03;3.73;;;;;;;2.77;100.00;97388.44;5026714;28;20065;-76
2022/02/11 11:20:38;;;;;;;11.53;4.70;;;;;;;2.67;100.00;97389.84;5037624;28;20033;-77
2022/02/11 11:23:15;;;;;;;10.87;3.33;;;;;;;2.81;97.55;97370.91;5019862;28;20444;-76
2022/02/11 11:25:54;;;;;;;8.03;2.50;;;;;;;2.69;96.95;97374.19;5012812;28;20038;-77
2022/02/11 11:28:45;;;;;;;13.50;6.57;;;;;;;2.90;97.93;97369.59;5044457;28;20029;-76
2022/02/11 11:31:27;;;;;;;14.93;6.73;;;;;;;2.89;97.70;97368.75;5027368;28;20037;-77
2022/02/11 11:34:16;;;;;;;10.13;5.30;;;;;;;2.94;96.13;97364.13;5045807;28;20116;-76
2022/02/11 11:36:45;;;;;;;12.23;6.10;;;;;;;3.12;95.93;97375.28;5045534;28;20025;-77
2022/02/11 11:39:11;;;;;;;11.77;5.93;;;;;;;3.15;95.61;97369.06;5015354;28;20108;-77
2022/02/11 11:41:40;;;;;;;9.40;3.53;;;;;;;3.18;95.84;97371.50;5008638;28;20156;-78
2022/02/11 11:44:26;;;;;;;15.77;7.73;;;;;;;3.18;96.52;97384.47;5010225;28;20453;-77
2022/02/11 11:46:58;;;;;;;12.37;7.37;;;;;;;3.14;95.24;97373.41;5016593;28;20113;-75
2022/02/11 11:49:26;;;;;;;10.40;3.60;;;;;;;3.09;96.35;97370.25;5015640;28;20484;-75
2022/02/11 11:51:52;;;;;;;8.43;3.47;;;;;;;3.09;96.32;97377.22;5041996;28;20067;-74
2022/02/11 11:54:18;;;;;;;6.20;2.57;;;;;;;3.11;96.43;97375.34;5049263;28;20056;-74
2022/02/11 11:56:52;;;;;;;6.27;2.93;;;;;;;2.97;96.42;97374.34;5031966;28;20051;-74
2022/02/11 11:59:24;;;;;;;8.43;2.63;;;;;;;3.08;96.36;97386.75;5009603;28;20479;-75
2022/02/11 12:01:51;;;;;;;7.20;2.70;;;;;;;3.09;97.48;97383.25;5012893;28;20150;-75
2022/02/11 12:04:23;;;;;;;6.87;2.77;;;;;;;3.06;97.50;97383.41;5024725;28;20032;-75
2022/02/11 12:07:00;;;;;;;6.03;2.27;;;;;;;2.86;98.66;97384.50;5048680;28;20044;-74
2022/02/11 12:09:27;;;;;;;9.53;2.87;;;;;;;3.11;97.65;97396.97;5036233;28;20045;-75
2022/02/11 12:12:03;;;;;;;7.80;2.83;;;;;;;2.95;96.80;97389.22;5040769;28;20083;-73
2022/02/11 12:14:33;;;;;;;5.43;2.40;;;;;;;2.84;97.06;97400.16;5038459;28;20041;-76
2022/02/11 12:17:02;;;;;;;5.93;2.30;;;;;;;2.87;99.88;97403.53;5038195;28;20025;-75
2022/02/11 12:19:29;;;;;;;6.53;2.50;;;;;;;2.87;98.54;97414.75;5036342;28;20571;-74
2022/02/11 12:21:57;;;;;;;6.10;2.20;;;;;;;2.98;97.84;97399.41;5013962;28;20025;-74
2022/02/11 12:27:20;;;;;;;8.90;3.10;;;;;;;3.06;97.73;97404.22;5042477;28;20041;-74
2022/02/11 12:30:01;;;;;;;8.30;4.27;;;;;;;3.00;98.29;97400.19;5020660;28;20043;-74
2022/02/11 12:32:39;;;;;;;10.43;3.33;;;;;;;3.04;95.10;97400.84;5036259;28;20151;-75
2022/02/11 12:35:13;;;;;;;7.87;2.73;;;;;;;2.90;97.18;97408.56;5021200;28;20448;-76
2022/02/11 12:37:42;;;;;;;7.80;3.65;;;;;;;3.00;95.66;97400.19;5032708;28;20033;-75
2022/02/11 12:40:28;;;;;;;7.90;2.47;;;;;;;3.23;92.86;97405.88;5045785;28;20044;-75
2022/02/11 12:42:56;;;;;;;6.60;1.83;;;;;;;3.08;92.07;97402.34;5039098;28;20033;-75
2022/02/11 12:45:29;;;;;;;7.77;2.23;;;;;;;3.05;91.33;97403.38;5018672;28;20044;-74
2022/02/11 12:47:55;;;;;;;4.60;1.87;;;;;;;3.18;89.18;97405.28;5031304;28;20038;-75
2022/02/11 12:50:32;;;;;;;11.30;2.63;;;;;;;3.11;89.92;97407.38;5035963;28;20025;-76
2022/02/11 12:53:00;;;;;;;11.27;2.00;;;;;;;2.89;85.96;97401.69;5045228;28;20033;-73
2022/02/11 12:55:26;;;;;;;5.63;1.60;;;;;;;3.11;88.07;97401.34;5068248;28;20021;-74
2022/02/11 12:57:57;;;;;;;10.37;2.23;;;;;;;3.29;87.74;97401.19;5011690;28;20072;-74
2022/02/11 13:00:25;;;;;;;6.63;1.57;;;;;;;3.22;87.17;97399.84;5029976;28;20025;-75
2022/02/11 13:02:57;;;;;;;6.80;2.40;;;;;;;3.20;87.37;97386.09;5036293;28;20032;-75
2022/02/11 13:05:26;;;;;;;6.90;1.83;;;;;;;3.07;86.39;97390.28;5037422;28;20025;-75
2022/02/11 13:07:54;;;;;;;8.40;2.20;;;;;;;3.78;84.89;97380.16;5038499;28;20048;-76
2022/02/11 13:10:20;;;;;;;8.20;2.47;;;;;;;4.37;79.42;97379.31;5036388;28;20083;-75
2022/02/11 13:12:46;;;;;;;6.83;2.07;;;;;;;4.82;75.26;97377.44;5019833;28;20017;-75
2022/02/11 13:15:15;;;;;;;7.83;2.07;;;;;;;5.22;71.90;97374.91;5014179;28;21964;-75
2022/02/11 13:17:42;;;;;;;7.33;2.00;;;;;;;5.49;68.63;97374.91;5029365;28;20032;-75
2022/02/11 13:20:14;;;;;;;4.00;1.63;;;;;;;5.99;68.95;97378.59;5030853;28;20037;-76
2022/02/11 13:22:42;;;;;;;9.40;1.90;;;;;;;5.81;68.20;97371.03;5015206;28;20066;-75
2022/02/11 13:25:09;;;;;;;7.53;2.07;;;;;;;5.01;73.28;97382.34;5032961;28;20126;-76
2022/02/11 13:27:39;;;;;;;10.73;1.87;;;;;;;4.59;74.98;97386.66;5025560;28;20086;-77
2022/02/11 13:30:05;;;;;;;5.93;2.03;;;;;;;4.44;75.40;97381.47;5024005;28;20037;-75
2022/02/11 13:32:31;;;;;;;8.07;2.30;;;;;;;4.05;74.38;97389.06;5023993;28;20126;-73
2022/02/11 13:35:08;;;;;;;5.93;1.73;;;;;;;3.97;77.96;97387.75;5027134;28;20037;-76
2022/02/11 13:37:47;;;;;;;10.40;2.70;;;;;;;3.80;77.23;97387.91;5018891;28;20061;-74
2022/02/11 13:40:14;;;;;;;7.87;2.13;;;;;;;3.70;78.80;97391.94;5021107;28;20025;-75
2022/02/11 13:42:41;;;;;;;6.93;2.07;;;;;;;3.78;78.28;97392.34;5006024;28;20041;-75
2022/02/11 13:45:08;;;;;;;7.23;1.90;;;;;;;3.66;80.35;97393.06;5027221;28;20055;-75
2022/02/11 13:47:34;;;;;;;5.73;2.10;;;;;;;3.36;80.02;97396.47;5008508;28;20037;-75
2022/02/11 13:50:05;;;;;;;8.73;2.33;;;;;;;3.59;80.66;97400.38;5021802;28;20032;-75
2022/02/11 13:55:17;;;;;;;9.10;3.00;;;;;;;4.22;77.53;97391.47;5023728;28;20033;-74
2022/02/11 13:57:43;;;;;;;9.03;2.00;;;;;;;4.47;77.54;97394.31;5069498;28;20041;-76
2022/02/11 14:00:33;;;;;;;7.33;2.40;;;;;;;5.03;75.16;97386.53;5038224;28;20036;-75
2022/02/11 14:02:59;;;;;;;5.93;1.77;;;;;;;5.39;72.85;97393.75;5040823;28;20110;-74
2022/02/11 14:05:24;;;;;;;11.57;3.13;;;;;;;5.64;70.49;97398.25;5031921;28;20049;-75
2022/02/11 14:07:55;;;;;;;9.80;2.40;;;;;;;5.48;69.22;97396.72;5040108;28;20516;-76
2022/02/11 14:10:22;;;;;;;5.20;2.13;;;;;;;5.67;69.24;97394.59;5037154;28;20033;-75
2022/02/11 14:12:48;;;;;;;10.43;3.00;;;;;;;5.25;69.30;97412.06;5041682;28;20079;-74
2022/02/11 14:15:16;;;;;;;5.50;2.57;;;;;;;4.43;70.24;97412.81;5023030;28;20029;-76
2022/02/11 14:17:43;;;;;;;5.73;2.13;;;;;;;4.06;72.92;97412.41;5041934;28;20087;-74
2022/02/11 14:20:09;;;;;;;6.93;1.60;;;;;;;4.15;74.26;97417.03;5052178;28;20037;-74
2022/02/11 14:22:38;;;;;;;5.30;1.70;;;;;;;3.71;75.64;97417.03;5030674;28;20059;-75
2022/02/11 14:25:04;;;;;;;10.77;3.87;;;;;;;3.76;77.16;97421.06;4996143;28;20021;-74
2022/02/11 14:27:33;;;;;;;7.17;2.70;;;;;;;3.58;77.72;97421.25;5006093;28;20033;-74
2022/02/11 14:29:59;;;;;;;9.30;2.80;;;;;;;3.50;79.08;97422.53;5033798;28;20116;-75
2022/02/11 14:32:26;;;;;;;8.17;2.30;;;;;;;3.43;77.27;97417.78;5022637;28;20041;-75
2022/02/11 14:34:52;;;;;;;8.47;2.00;;;;;;;3.40;77.76;97429.16;5042098;28;20032;-75
2022/02/11 14:37:17;;;;;;;12.00;3.77;;;;;;;3.28;79.98;97429.84;5051191;28;20151;-76
2022/02/11 14:39:43;;;;;;;9.37;3.77;;;;;;;3.26;79.85;97429.09;5036679;28;20398;-76
2022/02/11 14:42:09;;;;;;;7.17;2.40;;;;;;;3.14;81.48;97441.00;5017306;28;20156;-76
2022/02/11 14:44:38;;;;;;;5.37;1.77;;;;;;;3.11;84.78;97458.53;5046855;28;20028;-75
2022/02/11 14:47:06;;;;;;;7.73;2.40;;;;;;;2.96;88.67;97487.03;5027710;28;20368;-75
2022/02/11 14:49:32;;;;;;;2.53;1.00;;;;;;;1.91;100.00;97501.00;5022849;28;20116;-75
2022/02/11 14:52:04;;;;;;;4.13;1.33;;;;;;;1.22;100.00;97519.84;5039074;28;20187;-74
2022/02/11 14:54:32;;;;;;;6.50;1.73;;;;;;;0.99;100.00;97523.47;5035186;28;20117;-75
2022/02/11 14:56:59;;;;;;;5.83;2.30;;;;;;;0.74;100.00;97521.13;5038965;28;20445;-75
2022/02/11 14:59:25;;;;;;;6.07;1.30;;;;;;;0.67;100.00;97515.38;5026069;28;20838;-75
2022/02/11 15:01:53;;;;;;;12.43;2.43;;;;;;;0.69;100.00;97530.84;5048245;28;20578;-76
2022/02/11 15:04:19;;;;;;;4.80;1.47;;;;;;;0.66;100.00;97520.63;5043303;28;20491;-74
2022/02/11 15:06:47;;;;;;;15.57;7.27;;;;;;;0.41;100.00;97526.03;5039445;28;21040;-76
2022/02/11 15:09:13;;;;;;;8.77;2.87;;;;;;;0.38;100.00;97529.56;5022120;28;20474;-76
2022/02/11 15:11:39;;;;;;;3.60;2.00;;;;;;;0.44;100.00;97524.13;5023633;28;20499;-76
2022/02/11 15:14:05;;;;;;;5.33;1.53;;;;;;;0.34;100.00;97527.19;5036878;28;20452;-76
2022/02/11 15:16:30;;;;;;;3.07;1.50;;;;;;;0.51;100.00;97514.38;5046058;28;20033;-75
2022/02/11 15:18:58;;;;;;;5.97;2.20;;;;;;;0.54;100.00;97506.47;5039310;28;20090;-75
2022/02/11 15:21:23;;;;;;;6.93;2.40;;;;;;;0.51;100.00;97516.13;5055763;28;20471;-75
2022/02/11 15:23:49;;;;;;;5.13;1.70;;;;;;;0.68;100.00;97517.06;5067639;28;20033;-76
2022/02/11 15:26:17;;;;;;;5.17;2.60;;;;;;;0.57;100.00;97514.09;5068952;28;20037;-76
2022/02/11 15:28:43;;;;;;;4.40;1.73;;;;;;;0.61;100.00;97510.47;5049004;28;20519;-75
2022/02/11 15:31:12;;;;;;;4.77;1.97;;;;;;;0.51;100.00;97511.78;5030719;28;20490;-75
2022/02/11 15:33:40;;;;;;;8.33;3.03;;;;;;;0.53;100.00;97509.94;5029061;28;20478;-76
2022/02/11 15:36:07;;;;;;;6.00;2.77;;;;;;;0.52;100.00;97510.88;5033799;28;20463;-75
2022/02/11 15:38:33;;;;;;;4.33;1.83;;;;;;;0.42;100.00;97507.00;5049774;28;20552;-76